createdAt,value
2019-06-20T00:03:25.796Z,13.23
2019-06-20T00:07:30.345Z,15.70
2019-06-20T00:11:35.041Z,14.70
2019-06-20T00:15:40.412Z,13.57
2019-06-20T00:19:44.995Z,14.43
2019-06-20T00:23:49.576Z,15.27
2019-06-20T00:27:54.131Z,16.93
2019-06-20T00:31:58.650Z,15.53
2019-06-20T00:36:03.201Z,13.70
2019-06-20T00:40:08.689Z,13.37
2019-06-20T00:44:13.231Z,11.50
2019-06-20T00:48:17.842Z,13.37
2019-06-20T00:52:22.398Z,12.20
2019-06-20T00:56:26.983Z,10.37
2019-06-20T01:00:31.603Z,8.40
2019-06-20T01:04:36.152Z,7.80
2019-06-20T01:08:40.796Z,9.97
2019-06-20T01:12:45.335Z,8.73
2019-06-20T01:16:49.992Z,8.03
2019-06-20T01:20:54.516Z,7.17
2019-06-20T01:24:59.132Z,8.67
2019-06-20T01:29:03.674Z,5.03
2019-06-20T01:33:08.214Z,9.50
2019-06-20T01:37:12.747Z,7.63
2019-06-20T01:41:17.264Z,7.67
2019-06-20T01:45:21.878Z,7.50
2019-06-20T01:49:26.382Z,9.20
2019-06-20T01:53:30.928Z,9.97
2019-06-20T01:57:35.532Z,12.70
2019-06-20T02:01:40.059Z,12.43
2019-06-20T02:05:44.949Z,15.03
2019-06-20T02:09:49.496Z,18.00
2019-06-20T02:14:06.828Z,20.37
2019-06-20T02:18:00.463Z,23.63
2019-06-20T02:22:05.307Z,22.63
2019-06-20T02:26:09.972Z,23.03
2019-06-20T02:30:14.632Z,27.10
2019-06-20T02:34:19.174Z,24.70
2019-06-20T02:38:23.749Z,25.20
2019-06-20T02:42:28.369Z,28.73
2019-06-20T02:46:33.031Z,28.57
2019-06-20T02:50:37.743Z,28.70
2019-06-20T02:54:42.415Z,24.67
2019-06-20T02:58:46.955Z,24.77
2019-06-20T03:02:51.619Z,25.00
2019-06-20T03:06:56.176Z,27.03
2019-06-20T03:11:00.684Z,30.87
2019-06-20T03:15:06.265Z,31.20
2019-06-20T03:19:10.807Z,30.23
2019-06-20T03:23:15.430Z,29.27
2019-06-20T03:27:19.966Z,28.27
2019-06-20T03:31:24.512Z,27.03
2019-06-20T03:35:28.960Z,29.73
2019-06-20T03:39:33.512Z,26.20
2019-06-20T03:43:38.021Z,25.90
2019-06-20T03:47:42.601Z,29.43
2019-06-20T03:51:47.193Z,26.90
2019-06-20T03:55:51.729Z,29.33
2019-06-20T03:59:56.256Z,28.53
2019-06-20T04:04:00.794Z,30.00
2019-06-20T04:08:05.332Z,27.17
2019-06-20T04:12:09.880Z,27.57
2019-06-20T04:16:14.506Z,30.30
2019-06-20T04:20:19.123Z,34.50
2019-06-20T04:24:23.743Z,40.63
2019-06-20T04:28:28.307Z,43.93
2019-06-20T04:32:32.844Z,41.87
2019-06-20T04:36:37.394Z,41.07
2019-06-20T04:40:42.480Z,39.87
2019-06-20T04:44:47.034Z,39.73
2019-06-20T04:48:51.484Z,41.53
2019-06-20T04:52:56.026Z,42.30
2019-06-20T04:57:00.594Z,43.23
2019-06-20T05:01:05.160Z,45.90
2019-06-20T05:05:09.876Z,51.70
2019-06-20T05:09:14.427Z,45.50
2019-06-20T05:13:19.000Z,44.97
2019-06-20T05:17:23.616Z,44.73
2019-06-20T05:21:28.243Z,47.43
2019-06-20T05:25:32.890Z,42.20
2019-06-20T05:29:37.545Z,40.87
2019-06-20T05:33:42.109Z,43.63
2019-06-20T05:37:46.659Z,40.27
2019-06-20T05:41:51.214Z,44.00
2019-06-20T05:46:08.979Z,42.20
2019-06-20T05:50:02.062Z,41.67
2019-06-20T05:54:06.649Z,37.73
2019-06-20T05:58:11.202Z,36.93
2019-06-20T06:02:15.732Z,39.40
2019-06-20T06:06:20.273Z,41.10
2019-06-20T06:10:24.971Z,39.17
2019-06-20T06:14:29.720Z,38.50
2019-06-20T06:18:34.426Z,33.67
2019-06-20T06:22:38.990Z,35.30
2019-06-20T06:26:43.597Z,37.20
2019-06-20T06:30:48.202Z,35.17
2019-06-20T06:34:52.824Z,35.57
2019-06-20T06:38:57.425Z,31.10
2019-06-20T06:43:01.978Z,37.10
2019-06-20T06:47:06.490Z,33.47
2019-06-20T06:51:11.057Z,33.03
2019-06-20T06:55:15.852Z,31.93
2019-06-20T06:59:20.387Z,32.93
2019-06-20T07:03:24.941Z,34.70
2019-06-20T07:07:29.557Z,27.43
2019-06-20T07:11:34.203Z,28.47
2019-06-20T07:15:38.876Z,29.13
2019-06-20T07:19:43.399Z,26.23
2019-06-20T07:23:47.960Z,24.43
2019-06-20T07:27:52.530Z,23.47
2019-06-20T07:31:57.189Z,20.57
2019-06-20T07:36:01.756Z,21.87
2019-06-20T07:40:08.536Z,21.13
2019-06-20T07:44:12.903Z,24.70
2019-06-20T07:48:17.598Z,18.13
2019-06-20T07:52:22.637Z,18.67
2019-06-20T07:56:27.243Z,14.60
2019-06-20T08:00:32.059Z,15.97
2019-06-20T08:04:36.613Z,17.93
2019-06-20T08:08:41.224Z,15.17
2019-06-20T08:12:45.856Z,14.77
2019-06-20T08:16:50.505Z,15.00
2019-06-20T08:20:55.299Z,13.53
2019-06-20T08:25:00.966Z,14.47
2019-06-20T08:29:18.709Z,12.00
2019-06-20T08:33:12.444Z,14.93
2019-06-20T08:37:17.267Z,12.87
2019-06-20T08:41:21.820Z,12.03
2019-06-20T08:45:28.705Z,14.57
2019-06-20T08:49:32.979Z,11.13
2019-06-20T08:53:37.531Z,11.90
2019-06-20T08:57:42.233Z,12.77
2019-06-20T09:01:46.933Z,13.07
2019-06-20T09:05:51.483Z,11.20
2019-06-20T09:09:56.068Z,9.03
2019-06-20T09:14:01.492Z,10.83
2019-06-20T09:18:06.967Z,13.47
2019-06-20T09:22:11.515Z,15.77
2019-06-20T09:26:16.269Z,11.67
2019-06-20T09:30:21.045Z,13.80
2019-06-20T09:34:25.528Z,13.27
2019-06-20T09:38:30.119Z,12.90
2019-06-20T09:42:36.857Z,14.13
2019-06-20T09:46:40.976Z,15.23
2019-06-20T09:50:45.694Z,10.53
2019-06-20T09:54:51.617Z,12.03
2019-06-20T09:58:58.273Z,12.90
2019-06-20T10:03:02.921Z,10.87
2019-06-20T10:07:07.764Z,10.97
2019-06-20T10:11:12.529Z,14.03
2019-06-20T10:15:23.022Z,10.77
2019-06-20T10:19:27.577Z,12.70
2019-06-20T10:23:32.298Z,10.23
2019-06-20T10:27:36.784Z,10.27
2019-06-20T10:31:41.536Z,8.87
2019-06-20T10:35:47.010Z,10.17
2019-06-20T10:39:52.412Z,8.60
2019-06-20T10:43:56.883Z,9.43
2019-06-20T10:48:01.428Z,9.30
2019-06-20T10:52:07.474Z,8.83
2019-06-20T10:56:12.140Z,9.83
2019-06-20T11:00:30.286Z,8.80
2019-06-20T11:04:23.296Z,9.97
2019-06-20T11:08:27.900Z,8.70
2019-06-20T11:12:42.802Z,9.20
2019-06-20T11:16:40.127Z,9.00
2019-06-20T11:20:44.884Z,7.80
2019-06-20T11:24:49.523Z,9.07
2019-06-20T11:28:54.153Z,8.47
2019-06-20T11:32:58.797Z,8.33
2019-06-20T11:37:03.633Z,7.63
2019-06-20T11:41:08.427Z,8.80
2019-06-20T11:45:13.755Z,9.27
2019-06-20T11:49:18.455Z,10.87
2019-06-20T11:53:23.137Z,10.00
2019-06-20T11:57:27.754Z,11.03
2019-06-20T12:01:33.242Z,9.30
2019-06-20T12:05:38.654Z,10.67
2019-06-20T12:09:44.390Z,11.10
2019-06-20T12:13:48.996Z,14.53
2019-06-20T12:17:53.631Z,12.20
2019-06-20T12:21:58.241Z,15.37
2019-06-20T12:26:02.956Z,11.30
2019-06-20T12:30:09.897Z,12.13
2019-06-20T12:34:14.227Z,17.60
2019-06-20T12:38:18.860Z,15.47
2019-06-20T12:42:23.556Z,17.20
2019-06-20T12:46:28.302Z,13.87
2019-06-20T12:50:32.907Z,13.53
2019-06-20T12:54:38.164Z,14.10
2019-06-20T12:58:44.441Z,13.83
2019-06-20T13:02:49.758Z,13.63
2019-06-20T13:06:54.451Z,13.63
2019-06-20T13:10:59.038Z,9.73
2019-06-20T13:15:04.823Z,10.23
2019-06-20T13:19:09.484Z,10.83
2019-06-20T13:23:14.329Z,13.13
2019-06-20T13:27:19.009Z,10.20
2019-06-20T13:31:23.671Z,11.63
2019-06-20T13:35:28.463Z,11.30
2019-06-20T13:39:33.019Z,9.07
2019-06-20T13:43:37.576Z,9.20
2019-06-20T13:47:43.100Z,9.40
2019-06-20T13:51:47.931Z,7.93
2019-06-20T13:55:52.448Z,6.77
2019-06-20T13:59:57.065Z,7.70
2019-06-20T14:04:01.560Z,8.67
2019-06-20T14:08:06.403Z,9.43
2019-06-20T14:12:11.016Z,7.27
2019-06-20T14:16:15.632Z,8.23
2019-06-20T14:20:21.560Z,7.40
2019-06-20T14:24:26.187Z,12.83
2019-06-20T14:28:30.838Z,6.57
2019-06-20T14:32:35.417Z,7.03
2019-06-20T14:36:40.101Z,7.07
2019-06-20T14:40:45.309Z,9.10
2019-06-20T14:44:49.969Z,9.03
2019-06-20T14:48:54.513Z,10.77
2019-06-20T14:52:59.081Z,8.67
2019-06-20T14:57:03.744Z,8.07
2019-06-20T15:01:08.346Z,7.27
2019-06-20T15:05:16.942Z,4.40
2019-06-20T15:09:21.539Z,4.53
2019-06-20T15:13:26.100Z,5.80
2019-06-20T15:17:30.713Z,4.17
2019-06-20T15:21:35.321Z,3.80
2019-06-20T15:25:39.991Z,4.30
2019-06-20T15:29:47.018Z,4.70
2019-06-20T15:33:51.682Z,6.97
2019-06-20T15:37:57.670Z,5.17
2019-06-20T15:42:02.567Z,3.40
2019-06-20T15:46:07.371Z,2.70
2019-06-20T15:50:12.651Z,4.37
2019-06-20T15:54:17.269Z,4.83
2019-06-20T15:58:22.209Z,2.40
2019-06-20T16:02:26.748Z,3.50
2019-06-20T16:06:31.420Z,3.13
2019-06-20T16:10:36.027Z,5.53
2019-06-20T16:14:40.601Z,3.27
2019-06-20T16:18:45.205Z,3.30
2019-06-20T16:22:49.928Z,3.07
2019-06-20T16:26:54.483Z,4.13
2019-06-20T16:31:08.276Z,3.87
2019-06-20T16:35:08.664Z,3.67
2019-06-20T16:39:13.325Z,5.90
2019-06-20T16:43:18.119Z,5.27
2019-06-20T16:47:22.746Z,5.93
2019-06-20T16:51:27.292Z,5.17
2019-06-20T16:55:31.969Z,6.00
2019-06-20T16:59:36.567Z,8.07
2019-06-20T17:03:42.215Z,6.10
2019-06-20T17:07:47.003Z,7.97
2019-06-20T17:11:51.737Z,6.67
2019-06-20T17:15:56.271Z,4.33
2019-06-20T17:20:00.884Z,4.37
2019-06-20T17:24:05.683Z,7.63
2019-06-20T17:28:10.295Z,6.57
2019-06-20T17:32:14.815Z,11.17
2019-06-20T17:36:19.442Z,11.77
2019-06-20T17:40:24.910Z,10.97
2019-06-20T17:44:29.438Z,7.87
2019-06-20T17:48:34.002Z,9.67
2019-06-20T17:52:38.674Z,10.27
2019-06-20T17:56:43.387Z,9.03
2019-06-20T18:00:48.143Z,7.67
2019-06-20T18:04:52.755Z,7.57
2019-06-20T18:08:57.466Z,11.77
2019-06-20T18:13:02.055Z,11.43
2019-06-20T18:17:06.817Z,11.50
2019-06-20T18:21:11.604Z,8.67
2019-06-20T18:25:16.347Z,8.87
2019-06-20T18:29:20.860Z,10.97
2019-06-20T18:33:25.447Z,12.10
2019-06-20T18:37:31.703Z,8.70
2019-06-20T18:41:36.752Z,11.70
2019-06-20T18:45:41.358Z,8.57
2019-06-20T18:49:46.045Z,9.30
2019-06-20T18:53:50.784Z,11.50
2019-06-20T18:57:55.478Z,12.97
2019-06-20T19:02:00.376Z,11.93
2019-06-20T19:06:04.991Z,11.63
2019-06-20T19:10:11.309Z,13.47
2019-06-20T19:14:15.952Z,12.33
2019-06-20T19:18:23.012Z,10.87
2019-06-20T19:22:26.938Z,10.80
2019-06-20T19:26:31.575Z,9.23
2019-06-20T19:30:50.580Z,9.37
2019-06-20T19:35:01.821Z,10.40
2019-06-20T19:39:01.443Z,7.50
2019-06-20T19:43:06.089Z,10.60
2019-06-20T19:47:10.760Z,10.50
2019-06-20T19:51:15.419Z,9.17
2019-06-20T19:55:20.220Z,10.57
2019-06-20T19:59:24.822Z,8.07
2019-06-20T20:03:29.510Z,10.67
2019-06-20T20:07:34.230Z,10.70
2019-06-20T20:11:38.987Z,13.60
2019-06-20T20:15:44.361Z,10.03
2019-06-20T20:19:48.965Z,14.23
2019-06-20T20:23:53.604Z,14.27
2019-06-20T20:27:58.229Z,12.80
2019-06-20T20:32:02.956Z,10.70
2019-06-20T20:36:07.589Z,11.30
2019-06-20T20:40:12.612Z,10.50
2019-06-20T20:44:17.254Z,12.67
2019-06-20T20:48:21.879Z,10.57
2019-06-20T20:52:26.462Z,11.57
2019-06-20T20:56:31.151Z,10.03
2019-06-20T21:00:50.695Z,13.57
2019-06-20T21:04:55.343Z,13.37
2019-06-20T21:08:59.909Z,11.80
2019-06-20T21:13:04.584Z,10.77
2019-06-20T21:17:09.199Z,9.73
2019-06-20T21:21:13.709Z,12.60
2019-06-20T21:25:18.244Z,14.67
2019-06-20T21:29:22.798Z,12.20
2019-06-20T21:33:27.431Z,10.63
2019-06-20T21:37:31.939Z,11.77
2019-06-20T21:41:36.510Z,10.97
2019-06-20T21:45:41.178Z,12.17
2019-06-20T21:49:45.729Z,16.23
2019-06-20T21:53:50.255Z,12.47
2019-06-20T21:57:54.903Z,13.63
2019-06-20T22:01:59.664Z,13.10
2019-06-20T22:06:04.438Z,13.03
2019-06-20T22:10:09.414Z,12.97
2019-06-20T22:14:14.008Z,12.67
2019-06-20T22:18:18.627Z,12.07
2019-06-20T22:22:23.175Z,12.20
2019-06-20T22:26:27.778Z,14.10
2019-06-20T22:30:41.471Z,12.27
2019-06-20T22:34:46.028Z,13.70
2019-06-20T22:38:50.587Z,12.00
2019-06-20T22:42:55.176Z,14.90
2019-06-20T22:46:59.736Z,12.50
2019-06-20T22:51:04.281Z,14.33
2019-06-20T22:55:09.043Z,15.87
2019-06-20T22:59:13.598Z,12.07
2019-06-20T23:03:18.123Z,14.90
2019-06-20T23:07:22.745Z,14.40
2019-06-20T23:11:27.292Z,20.63
2019-06-20T23:15:31.979Z,20.80
2019-06-20T23:19:36.509Z,12.97
2019-06-20T23:23:41.099Z,17.77
2019-06-20T23:27:46.394Z,13.33
2019-06-20T23:31:52.251Z,15.40
2019-06-20T23:35:56.804Z,16.50
2019-06-20T23:40:01.502Z,14.17
2019-06-20T23:44:06.057Z,19.13
2019-06-20T23:48:10.682Z,21.63
2019-06-20T23:52:25.514Z,20.07
2019-06-20T23:56:30.051Z,18.80
